sensor_id;sensor_type;location;lat;lon;timestamp;P1;durP1;ratioP1;P2;durP2;ratioP2
35126;SDS011;21300;52.006;5.798;2023-04-06T00:00:56;11.20;;;6.90;;
35126;SDS011;21300;52.006;5.798;2023-04-06T00:03:22;11.32;;;6.28;;
35126;SDS011;21300;52.006;5.798;2023-04-06T00:05:48;10.77;;;6.45;;
35126;SDS011;21300;52.006;5.798;2023-04-06T00:08:14;10.73;;;6.78;;
35126;SDS011;21300;52.006;5.798;2023-04-06T00:10:39;10.48;;;6.65;;
35126;SDS011;21300;52.006;5.798;2023-04-06T00:13:05;10.05;;;6.20;;
35126;SDS011;21300;52.006;5.798;2023-04-06T00:15:32;10.98;;;6.43;;
35126;SDS011;21300;52.006;5.798;2023-04-06T00:17:58;9.32;;;6.65;;
35126;SDS011;21300;52.006;5.798;2023-04-06T00:20:23;14.45;;;6.63;;
35126;SDS011;21300;52.006;5.798;2023-04-06T00:22:49;10.68;;;6.75;;
35126;SDS011;21300;52.006;5.798;2023-04-06T00:25:15;17.08;;;7.22;;
35126;SDS011;21300;52.006;5.798;2023-04-06T00:27:41;9.98;;;7.30;;
35126;SDS011;21300;52.006;5.798;2023-04-06T00:30:07;10.85;;;6.60;;
35126;SDS011;21300;52.006;5.798;2023-04-06T00:32:34;12.25;;;7.00;;
35126;SDS011;21300;52.006;5.798;2023-04-06T00:35:02;9.13;;;6.25;;
35126;SDS011;21300;52.006;5.798;2023-04-06T00:37:28;12.25;;;6.82;;
35126;SDS011;21300;52.006;5.798;2023-04-06T00:39:53;10.48;;;6.85;;
35126;SDS011;21300;52.006;5.798;2023-04-06T00:42:19;11.95;;;7.20;;
35126;SDS011;21300;52.006;5.798;2023-04-06T00:44:51;10.68;;;6.40;;
35126;SDS011;21300;52.006;5.798;2023-04-06T00:47:22;10.63;;;6.60;;
35126;SDS011;21300;52.006;5.798;2023-04-06T00:49:50;12.27;;;6.70;;
35126;SDS011;21300;52.006;5.798;2023-04-06T00:52:16;10.23;;;7.35;;
35126;SDS011;21300;52.006;5.798;2023-04-06T00:54:42;11.60;;;6.82;;
35126;SDS011;21300;52.006;5.798;2023-04-06T00:57:08;11.85;;;7.57;;
35126;SDS011;21300;52.006;5.798;2023-04-06T00:59:33;13.65;;;7.10;;
35126;SDS011;21300;52.006;5.798;2023-04-06T01:01:59;13.00;;;7.13;;
35126;SDS011;21300;52.006;5.798;2023-04-06T01:04:25;12.30;;;7.20;;
35126;SDS011;21300;52.006;5.798;2023-04-06T01:06:52;12.63;;;6.85;;
35126;SDS011;21300;52.006;5.798;2023-04-06T01:09:17;11.02;;;7.10;;
35126;SDS011;21300;52.006;5.798;2023-04-06T01:11:43;11.18;;;6.80;;
35126;SDS011;21300;52.006;5.798;2023-04-06T01:14:08;11.85;;;7.10;;
35126;SDS011;21300;52.006;5.798;2023-04-06T01:16:34;8.43;;;6.10;;
35126;SDS011;21300;52.006;5.798;2023-04-06T01:19:01;10.73;;;6.70;;
35126;SDS011;21300;52.006;5.798;2023-04-06T01:21:32;10.60;;;6.63;;
35126;SDS011;21300;52.006;5.798;2023-04-06T01:23:58;9.43;;;5.75;;
35126;SDS011;21300;52.006;5.798;2023-04-06T01:26:23;11.88;;;6.10;;
35126;SDS011;21300;52.006;5.798;2023-04-06T01:28:49;12.55;;;6.32;;
35126;SDS011;21300;52.006;5.798;2023-04-06T01:31:14;13.95;;;6.43;;
35126;SDS011;21300;52.006;5.798;2023-04-06T01:33:40;12.63;;;6.43;;
35126;SDS011;21300;52.006;5.798;2023-04-06T01:36:06;9.50;;;6.32;;
35126;SDS011;21300;52.006;5.798;2023-04-06T01:38:31;11.80;;;7.25;;
35126;SDS011;21300;52.006;5.798;2023-04-06T01:40:57;11.95;;;6.05;;
35126;SDS011;21300;52.006;5.798;2023-04-06T01:43:41;11.43;;;6.05;;
35126;SDS011;21300;52.006;5.798;2023-04-06T01:46:06;10.60;;;6.57;;
35126;SDS011;21300;52.006;5.798;2023-04-06T01:48:32;10.25;;;6.07;;
35126;SDS011;21300;52.006;5.798;2023-04-06T01:50:57;10.80;;;6.50;;
35126;SDS011;21300;52.006;5.798;2023-04-06T01:53:23;10.63;;;6.10;;
35126;SDS011;21300;52.006;5.798;2023-04-06T01:55:49;10.15;;;6.03;;
35126;SDS011;21300;52.006;5.798;2023-04-06T01:58:14;8.82;;;6.32;;
35126;SDS011;21300;52.006;5.798;2023-04-06T02:00:40;11.80;;;7.00;;
35126;SDS011;21300;52.006;5.798;2023-04-06T02:03:06;13.27;;;6.20;;
35126;SDS011;21300;52.006;5.798;2023-04-06T02:05:32;11.27;;;6.22;;
35126;SDS011;21300;52.006;5.798;2023-04-06T02:08:06;14.05;;;6.68;;
35126;SDS011;21300;52.006;5.798;2023-04-06T02:10:35;10.43;;;6.68;;
35126;SDS011;21300;52.006;5.798;2023-04-06T02:13:01;10.80;;;5.93;;
35126;SDS011;21300;52.006;5.798;2023-04-06T02:15:26;10.48;;;5.75;;
35126;SDS011;21300;52.006;5.798;2023-04-06T02:17:52;12.02;;;6.75;;
35126;SDS011;21300;52.006;5.798;2023-04-06T02:20:18;10.40;;;6.22;;
35126;SDS011;21300;52.006;5.798;2023-04-06T02:22:44;9.07;;;6.30;;
35126;SDS011;21300;52.006;5.798;2023-04-06T02:25:10;11.73;;;7.07;;
35126;SDS011;21300;52.006;5.798;2023-04-06T02:27:36;9.70;;;6.45;;
35126;SDS011;21300;52.006;5.798;2023-04-06T02:30:04;8.90;;;6.28;;
35126;SDS011;21300;52.006;5.798;2023-04-06T02:32:30;8.90;;;6.05;;
35126;SDS011;21300;52.006;5.798;2023-04-06T02:34:56;11.93;;;6.47;;
35126;SDS011;21300;52.006;5.798;2023-04-06T02:37:22;10.68;;;6.50;;
35126;SDS011;21300;52.006;5.798;2023-04-06T02:39:48;11.75;;;6.68;;
35126;SDS011;21300;52.006;5.798;2023-04-06T02:42:14;13.20;;;6.60;;
35126;SDS011;21300;52.006;5.798;2023-04-06T02:44:40;11.00;;;6.20;;
35126;SDS011;21300;52.006;5.798;2023-04-06T02:47:06;10.77;;;7.05;;
35126;SDS011;21300;52.006;5.798;2023-04-06T02:49:32;11.07;;;6.82;;
35126;SDS011;21300;52.006;5.798;2023-04-06T02:51:57;13.70;;;7.07;;
35126;SDS011;21300;52.006;5.798;2023-04-06T02:54:23;11.00;;;6.63;;
35126;SDS011;21300;52.006;5.798;2023-04-06T02:56:48;11.15;;;6.78;;
35126;SDS011;21300;52.006;5.798;2023-04-06T02:59:14;12.18;;;7.25;;
35126;SDS011;21300;52.006;5.798;2023-04-06T03:01:40;11.95;;;6.70;;
35126;SDS011;21300;52.006;5.798;2023-04-06T03:04:05;10.30;;;7.03;;
35126;SDS011;21300;52.006;5.798;2023-04-06T03:06:31;10.98;;;6.78;;
35126;SDS011;21300;52.006;5.798;2023-04-06T03:08:57;14.20;;;7.30;;
35126;SDS011;21300;52.006;5.798;2023-04-06T03:11:22;12.32;;;7.00;;
35126;SDS011;21300;52.006;5.798;2023-04-06T03:13:48;11.60;;;6.40;;
35126;SDS011;21300;52.006;5.798;2023-04-06T03:16:13;11.18;;;7.05;;
35126;SDS011;21300;52.006;5.798;2023-04-06T03:18:39;12.45;;;7.20;;
35126;SDS011;21300;52.006;5.798;2023-04-06T03:21:05;11.43;;;7.03;;
35126;SDS011;21300;52.006;5.798;2023-04-06T03:23:30;12.68;;;7.57;;
35126;SDS011;21300;52.006;5.798;2023-04-06T03:25:56;11.45;;;6.63;;
35126;SDS011;21300;52.006;5.798;2023-04-06T03:28:21;12.52;;;7.05;;
35126;SDS011;21300;52.006;5.798;2023-04-06T03:30:47;12.63;;;7.25;;
35126;SDS011;21300;52.006;5.798;2023-04-06T03:33:13;14.55;;;7.47;;
35126;SDS011;21300;52.006;5.798;2023-04-06T03:35:39;11.52;;;7.38;;
35126;SDS011;21300;52.006;5.798;2023-04-06T03:38:04;14.52;;;7.43;;
35126;SDS011;21300;52.006;5.798;2023-04-06T03:40:30;12.07;;;7.47;;
35126;SDS011;21300;52.006;5.798;2023-04-06T03:42:56;11.75;;;7.75;;
35126;SDS011;21300;52.006;5.798;2023-04-06T03:45:22;12.70;;;7.32;;
35126;SDS011;21300;52.006;5.798;2023-04-06T03:47:47;12.65;;;8.05;;
35126;SDS011;21300;52.006;5.798;2023-04-06T03:50:13;12.73;;;8.02;;
35126;SDS011;21300;52.006;5.798;2023-04-06T03:52:38;16.05;;;8.73;;
35126;SDS011;21300;52.006;5.798;2023-04-06T03:55:04;15.65;;;8.60;;
35126;SDS011;21300;52.006;5.798;2023-04-06T03:57:30;14.30;;;7.88;;
35126;SDS011;21300;52.006;5.798;2023-04-06T03:59:56;13.93;;;7.93;;
35126;SDS011;21300;52.006;5.798;2023-04-06T04:02:21;14.82;;;8.75;;
35126;SDS011;21300;52.006;5.798;2023-04-06T04:04:47;12.45;;;7.82;;
35126;SDS011;21300;52.006;5.798;2023-04-06T04:07:13;13.88;;;8.80;;
35126;SDS011;21300;52.006;5.798;2023-04-06T04:09:38;18.10;;;9.48;;
35126;SDS011;21300;52.006;5.798;2023-04-06T04:12:04;15.30;;;8.70;;
35126;SDS011;21300;52.006;5.798;2023-04-06T04:14:30;15.10;;;8.15;;
35126;SDS011;21300;52.006;5.798;2023-04-06T04:16:55;14.48;;;9.10;;
35126;SDS011;21300;52.006;5.798;2023-04-06T04:19:21;15.35;;;8.32;;
35126;SDS011;21300;52.006;5.798;2023-04-06T04:21:46;14.55;;;8.77;;
35126;SDS011;21300;52.006;5.798;2023-04-06T04:24:12;13.95;;;8.88;;
35126;SDS011;21300;52.006;5.798;2023-04-06T04:26:38;17.25;;;9.75;;
35126;SDS011;21300;52.006;5.798;2023-04-06T04:29:05;15.65;;;9.73;;
35126;SDS011;21300;52.006;5.798;2023-04-06T04:31:31;14.63;;;8.93;;
35126;SDS011;21300;52.006;5.798;2023-04-06T04:33:57;12.82;;;8.20;;
35126;SDS011;21300;52.006;5.798;2023-04-06T04:36:23;15.25;;;9.35;;
35126;SDS011;21300;52.006;5.798;2023-04-06T04:38:50;13.70;;;8.25;;
35126;SDS011;21300;52.006;5.798;2023-04-06T04:41:16;13.82;;;9.48;;
35126;SDS011;21300;52.006;5.798;2023-04-06T04:43:42;19.02;;;9.98;;
35126;SDS011;21300;52.006;5.798;2023-04-06T04:46:07;16.75;;;10.38;;
35126;SDS011;21300;52.006;5.798;2023-04-06T04:48:33;20.75;;;10.65;;
35126;SDS011;21300;52.006;5.798;2023-04-06T04:50:58;15.40;;;9.48;;
35126;SDS011;21300;52.006;5.798;2023-04-06T04:53:24;14.98;;;9.60;;
35126;SDS011;21300;52.006;5.798;2023-04-06T04:55:50;15.25;;;9.93;;
35126;SDS011;21300;52.006;5.798;2023-04-06T04:58:15;14.93;;;9.27;;
35126;SDS011;21300;52.006;5.798;2023-04-06T05:00:42;18.52;;;10.82;;
35126;SDS011;21300;52.006;5.798;2023-04-06T05:03:08;18.30;;;10.48;;
35126;SDS011;21300;52.006;5.798;2023-04-06T05:05:38;17.85;;;9.82;;
35126;SDS011;21300;52.006;5.798;2023-04-06T05:08:03;15.52;;;9.25;;
35126;SDS011;21300;52.006;5.798;2023-04-06T05:10:29;18.80;;;11.10;;
35126;SDS011;21300;52.006;5.798;2023-04-06T05:12:58;18.08;;;10.98;;
35126;SDS011;21300;52.006;5.798;2023-04-06T05:15:23;19.77;;;11.18;;
35126;SDS011;21300;52.006;5.798;2023-04-06T05:17:49;17.83;;;11.13;;
35126;SDS011;21300;52.006;5.798;2023-04-06T05:20:15;18.95;;;11.10;;
35126;SDS011;21300;52.006;5.798;2023-04-06T05:22:41;17.55;;;10.82;;
35126;SDS011;21300;52.006;5.798;2023-04-06T05:25:07;20.20;;;11.88;;
35126;SDS011;21300;52.006;5.798;2023-04-06T05:27:33;20.05;;;11.45;;
35126;SDS011;21300;52.006;5.798;2023-04-06T05:29:58;18.38;;;12.32;;
35126;SDS011;21300;52.006;5.798;2023-04-06T05:32:24;21.27;;;12.05;;
35126;SDS011;21300;52.006;5.798;2023-04-06T05:34:50;21.70;;;12.38;;
35126;SDS011;21300;52.006;5.798;2023-04-06T05:37:16;21.15;;;11.95;;
35126;SDS011;21300;52.006;5.798;2023-04-06T05:39:41;19.45;;;11.70;;
35126;SDS011;21300;52.006;5.798;2023-04-06T05:42:07;23.02;;;11.85;;
35126;SDS011;21300;52.006;5.798;2023-04-06T05:44:32;18.67;;;11.00;;
35126;SDS011;21300;52.006;5.798;2023-04-06T05:46:58;19.77;;;11.82;;
35126;SDS011;21300;52.006;5.798;2023-04-06T05:49:23;22.10;;;12.40;;
35126;SDS011;21300;52.006;5.798;2023-04-06T05:51:49;20.98;;;12.13;;
35126;SDS011;21300;52.006;5.798;2023-04-06T05:59:26;21.50;;;12.18;;
35126;SDS011;21300;52.006;5.798;2023-04-06T06:01:52;20.83;;;13.13;;
35126;SDS011;21300;52.006;5.798;2023-04-06T06:04:17;21.50;;;12.50;;
35126;SDS011;21300;52.006;5.798;2023-04-06T06:06:43;23.42;;;13.48;;
35126;SDS011;21300;52.006;5.798;2023-04-06T06:09:09;23.58;;;12.52;;
35126;SDS011;21300;52.006;5.798;2023-04-06T06:11:35;24.40;;;13.75;;
35126;SDS011;21300;52.006;5.798;2023-04-06T06:14:00;23.17;;;14.18;;
35126;SDS011;21300;52.006;5.798;2023-04-06T06:16:26;23.00;;;12.95;;
35126;SDS011;21300;52.006;5.798;2023-04-06T06:18:51;22.77;;;13.25;;
35126;SDS011;21300;52.006;5.798;2023-04-06T06:21:17;25.10;;;13.68;;
35126;SDS011;21300;52.006;5.798;2023-04-06T06:23:42;25.60;;;14.20;;
35126;SDS011;21300;52.006;5.798;2023-04-06T06:26:08;23.05;;;13.50;;
35126;SDS011;21300;52.006;5.798;2023-04-06T06:28:34;22.13;;;14.10;;
35126;SDS011;21300;52.006;5.798;2023-04-06T06:30:59;25.40;;;15.23;;
35126;SDS011;21300;52.006;5.798;2023-04-06T06:33:26;24.70;;;14.05;;
35126;SDS011;21300;52.006;5.798;2023-04-06T06:35:51;28.80;;;14.25;;
35126;SDS011;21300;52.006;5.798;2023-04-06T06:38:17;26.08;;;13.73;;
35126;SDS011;21300;52.006;5.798;2023-04-06T06:40:44;28.70;;;15.23;;
35126;SDS011;21300;52.006;5.798;2023-04-06T06:43:10;26.73;;;15.00;;
35126;SDS011;21300;52.006;5.798;2023-04-06T06:45:36;23.55;;;13.93;;
35126;SDS011;21300;52.006;5.798;2023-04-06T06:50:47;27.83;;;14.97;;
35126;SDS011;21300;52.006;5.798;2023-04-06T06:53:13;24.75;;;14.05;;
35126;SDS011;21300;52.006;5.798;2023-04-06T06:55:39;26.48;;;14.73;;
35126;SDS011;21300;52.006;5.798;2023-04-06T06:58:05;29.60;;;14.18;;
35126;SDS011;21300;52.006;5.798;2023-04-06T07:00:31;27.40;;;14.07;;
35126;SDS011;21300;52.006;5.798;2023-04-06T07:02:57;31.15;;;14.68;;
35126;SDS011;21300;52.006;5.798;2023-04-06T07:05:22;23.35;;;12.45;;
35126;SDS011;21300;52.006;5.798;2023-04-06T07:07:48;21.50;;;10.32;;
35126;SDS011;21300;52.006;5.798;2023-04-06T07:10:14;24.40;;;13.32;;
35126;SDS011;21300;52.006;5.798;2023-04-06T07:12:39;24.67;;;13.10;;
35126;SDS011;21300;52.006;5.798;2023-04-06T07:15:05;31.45;;;15.23;;
35126;SDS011;21300;52.006;5.798;2023-04-06T07:17:31;24.77;;;13.85;;
35126;SDS011;21300;52.006;5.798;2023-04-06T07:19:57;25.48;;;14.20;;
35126;SDS011;21300;52.006;5.798;2023-04-06T07:22:22;23.50;;;13.35;;
35126;SDS011;21300;52.006;5.798;2023-04-06T07:24:48;24.95;;;14.38;;
35126;SDS011;21300;52.006;5.798;2023-04-06T07:27:13;29.17;;;13.85;;
35126;SDS011;21300;52.006;5.798;2023-04-06T07:29:41;25.30;;;14.75;;
35126;SDS011;21300;52.006;5.798;2023-04-06T07:32:06;26.90;;;15.45;;
35126;SDS011;21300;52.006;5.798;2023-04-06T07:34:32;26.60;;;14.63;;
35126;SDS011;21300;52.006;5.798;2023-04-06T07:36:58;28.98;;;15.05;;
35126;SDS011;21300;52.006;5.798;2023-04-06T07:39:23;28.67;;;14.85;;
35126;SDS011;21300;52.006;5.798;2023-04-06T07:41:51;27.63;;;14.77;;
35126;SDS011;21300;52.006;5.798;2023-04-06T07:44:16;29.15;;;15.43;;
35126;SDS011;21300;52.006;5.798;2023-04-06T07:46:42;26.35;;;11.60;;
35126;SDS011;21300;52.006;5.798;2023-04-06T07:49:08;26.50;;;14.55;;
35126;SDS011;21300;52.006;5.798;2023-04-06T07:51:35;27.55;;;15.10;;
35126;SDS011;21300;52.006;5.798;2023-04-06T07:54:03;26.35;;;14.55;;
35126;SDS011;21300;52.006;5.798;2023-04-06T07:56:28;29.38;;;15.48;;
35126;SDS011;21300;52.006;5.798;2023-04-06T07:58:54;23.58;;;12.75;;
35126;SDS011;21300;52.006;5.798;2023-04-06T08:01:22;28.75;;;14.07;;
35126;SDS011;21300;52.006;5.798;2023-04-06T08:03:47;25.50;;;15.40;;
35126;SDS011;21300;52.006;5.798;2023-04-06T08:06:14;29.38;;;14.27;;
35126;SDS011;21300;52.006;5.798;2023-04-06T08:08:40;27.27;;;15.75;;
35126;SDS011;21300;52.006;5.798;2023-04-06T08:11:06;28.65;;;13.90;;
35126;SDS011;21300;52.006;5.798;2023-04-06T08:13:32;31.33;;;15.45;;
35126;SDS011;21300;52.006;5.798;2023-04-06T08:15:58;26.85;;;14.63;;
35126;SDS011;21300;52.006;5.798;2023-04-06T08:18:24;27.73;;;14.95;;
35126;SDS011;21300;52.006;5.798;2023-04-06T08:20:50;30.92;;;14.52;;
35126;SDS011;21300;52.006;5.798;2023-04-06T08:23:16;24.23;;;14.88;;
35126;SDS011;21300;52.006;5.798;2023-04-06T08:25:41;27.65;;;15.45;;
35126;SDS011;21300;52.006;5.798;2023-04-06T08:28:08;29.30;;;15.65;;
35126;SDS011;21300;52.006;5.798;2023-04-06T08:30:34;30.10;;;16.38;;
35126;SDS011;21300;52.006;5.798;2023-04-06T08:33:00;28.35;;;15.20;;
35126;SDS011;21300;52.006;5.798;2023-04-06T08:35:26;28.88;;;15.80;;
35126;SDS011;21300;52.006;5.798;2023-04-06T08:37:52;23.73;;;14.63;;
35126;SDS011;21300;52.006;5.798;2023-04-06T08:40:18;28.55;;;14.88;;
35126;SDS011;21300;52.006;5.798;2023-04-06T08:42:44;28.35;;;15.60;;
35126;SDS011;21300;52.006;5.798;2023-04-06T08:45:16;29.35;;;15.38;;
35126;SDS011;21300;52.006;5.798;2023-04-06T08:47:43;27.38;;;15.07;;
35126;SDS011;21300;52.006;5.798;2023-04-06T08:50:09;29.38;;;15.48;;
35126;SDS011;21300;52.006;5.798;2023-04-06T08:52:36;29.27;;;15.18;;
35126;SDS011;21300;52.006;5.798;2023-04-06T08:55:03;27.17;;;14.85;;
35126;SDS011;21300;52.006;5.798;2023-04-06T08:57:28;27.75;;;14.68;;
35126;SDS011;21300;52.006;5.798;2023-04-06T08:59:56;27.48;;;15.57;;
35126;SDS011;21300;52.006;5.798;2023-04-06T09:02:25;26.77;;;14.65;;
35126;SDS011;21300;52.006;5.798;2023-04-06T09:04:52;28.63;;;15.63;;
35126;SDS011;21300;52.006;5.798;2023-04-06T09:07:18;26.33;;;15.73;;
35126;SDS011;21300;52.006;5.798;2023-04-06T09:09:44;27.05;;;15.73;;
35126;SDS011;21300;52.006;5.798;2023-04-06T09:12:25;27.77;;;15.27;;
35126;SDS011;21300;52.006;5.798;2023-04-06T09:14:52;31.65;;;16.73;;
35126;SDS011;21300;52.006;5.798;2023-04-06T09:17:22;28.13;;;16.05;;
35126;SDS011;21300;52.006;5.798;2023-04-06T09:19:48;33.00;;;16.38;;
35126;SDS011;21300;52.006;5.798;2023-04-06T09:22:14;31.38;;;17.90;;
35126;SDS011;21300;52.006;5.798;2023-04-06T09:24:41;27.23;;;16.75;;
35126;SDS011;21300;52.006;5.798;2023-04-06T09:27:07;32.58;;;16.98;;
35126;SDS011;21300;52.006;5.798;2023-04-06T09:29:32;32.08;;;18.98;;
35126;SDS011;21300;52.006;5.798;2023-04-06T09:32:04;30.38;;;17.02;;
35126;SDS011;21300;52.006;5.798;2023-04-06T09:34:31;30.38;;;16.92;;
35126;SDS011;21300;52.006;5.798;2023-04-06T09:36:58;33.88;;;18.80;;
35126;SDS011;21300;52.006;5.798;2023-04-06T09:39:23;28.95;;;15.60;;
35126;SDS011;21300;52.006;5.798;2023-04-06T09:41:52;34.20;;;18.30;;
35126;SDS011;21300;52.006;5.798;2023-04-06T09:44:19;29.77;;;17.50;;
35126;SDS011;21300;52.006;5.798;2023-04-06T09:46:45;29.55;;;17.63;;
35126;SDS011;21300;52.006;5.798;2023-04-06T09:49:12;36.42;;;19.10;;
35126;SDS011;21300;52.006;5.798;2023-04-06T09:51:44;39.20;;;19.08;;
35126;SDS011;21300;52.006;5.798;2023-04-06T09:54:15;34.72;;;17.73;;
35126;SDS011;21300;52.006;5.798;2023-04-06T09:56:46;32.42;;;16.60;;
35126;SDS011;21300;52.006;5.798;2023-04-06T09:59:20;32.80;;;17.60;;
35126;SDS011;21300;52.006;5.798;2023-04-06T10:01:55;34.38;;;17.40;;
35126;SDS011;21300;52.006;5.798;2023-04-06T10:06:56;33.25;;;17.85;;
35126;SDS011;21300;52.006;5.798;2023-04-06T10:09:25;28.52;;;17.45;;
35126;SDS011;21300;52.006;5.798;2023-04-06T10:11:56;30.35;;;17.50;;
35126;SDS011;21300;52.006;5.798;2023-04-06T10:14:23;19.83;;;11.77;;
35126;SDS011;21300;52.006;5.798;2023-04-06T10:16:49;31.80;;;19.13;;
35126;SDS011;21300;52.006;5.798;2023-04-06T10:19:18;33.67;;;19.88;;
35126;SDS011;21300;52.006;5.798;2023-04-06T10:21:50;32.25;;;17.48;;
35126;SDS011;21300;52.006;5.798;2023-04-06T10:24:18;29.88;;;16.95;;
35126;SDS011;21300;52.006;5.798;2023-04-06T10:26:43;35.03;;;19.23;;
35126;SDS011;21300;52.006;5.798;2023-04-06T10:29:22;31.27;;;18.25;;
35126;SDS011;21300;52.006;5.798;2023-04-06T10:31:48;36.05;;;18.75;;
35126;SDS011;21300;52.006;5.798;2023-04-06T10:34:14;33.53;;;18.33;;
35126;SDS011;21300;52.006;5.798;2023-04-06T10:36:39;28.02;;;16.80;;
35126;SDS011;21300;52.006;5.798;2023-04-06T10:39:05;33.85;;;18.25;;
35126;SDS011;21300;52.006;5.798;2023-04-06T10:41:35;33.15;;;17.83;;
35126;SDS011;21300;52.006;5.798;2023-04-06T10:44:08;31.20;;;16.92;;
35126;SDS011;21300;52.006;5.798;2023-04-06T10:46:56;33.83;;;17.67;;
35126;SDS011;21300;52.006;5.798;2023-04-06T10:49:22;30.38;;;17.85;;
35126;SDS011;21300;52.006;5.798;2023-04-06T10:51:53;33.75;;;19.23;;
35126;SDS011;21300;52.006;5.798;2023-04-06T10:54:20;31.15;;;18.05;;
35126;SDS011;21300;52.006;5.798;2023-04-06T10:56:48;28.35;;;18.15;;
35126;SDS011;21300;52.006;5.798;2023-04-06T10:59:18;27.73;;;17.65;;
35126;SDS011;21300;52.006;5.798;2023-04-06T11:01:47;29.73;;;17.38;;
35126;SDS011;21300;52.006;5.798;2023-04-06T11:04:15;27.05;;;16.92;;
35126;SDS011;21300;52.006;5.798;2023-04-06T11:06:45;29.88;;;16.58;;
35126;SDS011;21300;52.006;5.798;2023-04-06T11:09:12;29.92;;;15.93;;
35126;SDS011;21300;52.006;5.798;2023-04-06T11:11:48;25.88;;;16.73;;
35126;SDS011;21300;52.006;5.798;2023-04-06T11:14:14;25.25;;;15.40;;
35126;SDS011;21300;52.006;5.798;2023-04-06T11:16:40;26.77;;;15.82;;
35126;SDS011;21300;52.006;5.798;2023-04-06T11:19:05;25.55;;;14.45;;
35126;SDS011;21300;52.006;5.798;2023-04-06T11:24:05;24.15;;;14.15;;
35126;SDS011;21300;52.006;5.798;2023-04-06T11:26:36;24.48;;;15.57;;
35126;SDS011;21300;52.006;5.798;2023-04-06T11:29:10;23.73;;;15.30;;
35126;SDS011;21300;52.006;5.798;2023-04-06T11:31:50;23.35;;;14.48;;
35126;SDS011;21300;52.006;5.798;2023-04-06T11:34:26;20.42;;;12.70;;
35126;SDS011;21300;52.006;5.798;2023-04-06T11:36:54;20.70;;;13.38;;
35126;SDS011;21300;52.006;5.798;2023-04-06T11:39:23;24.30;;;14.23;;
35126;SDS011;21300;52.006;5.798;2023-04-06T11:41:50;23.90;;;15.68;;
35126;SDS011;21300;52.006;5.798;2023-04-06T11:47:05;15.07;;;8.80;;
35126;SDS011;21300;52.006;5.798;2023-04-06T11:49:33;20.77;;;12.48;;
35126;SDS011;21300;52.006;5.798;2023-04-06T11:52:02;20.10;;;13.40;;
35126;SDS011;21300;52.006;5.798;2023-04-06T11:54:35;17.85;;;12.20;;
35126;SDS011;21300;52.006;5.798;2023-04-06T11:57:11;16.73;;;9.70;;
35126;SDS011;21300;52.006;5.798;2023-04-06T11:59:37;19.77;;;11.43;;
35126;SDS011;21300;52.006;5.798;2023-04-06T12:02:02;16.95;;;11.02;;
35126;SDS011;21300;52.006;5.798;2023-04-06T12:04:34;14.95;;;9.80;;
35126;SDS011;21300;52.006;5.798;2023-04-06T12:07:05;15.85;;;9.52;;
35126;SDS011;21300;52.006;5.798;2023-04-06T12:09:31;17.75;;;10.40;;
35126;SDS011;21300;52.006;5.798;2023-04-06T12:11:57;15.80;;;9.80;;
35126;SDS011;21300;52.006;5.798;2023-04-06T12:14:23;13.63;;;9.07;;
35126;SDS011;21300;52.006;5.798;2023-04-06T12:16:49;13.73;;;8.52;;
35126;SDS011;21300;52.006;5.798;2023-04-06T12:19:14;14.25;;;9.02;;
35126;SDS011;21300;52.006;5.798;2023-04-06T12:21:40;14.88;;;7.95;;
35126;SDS011;21300;52.006;5.798;2023-04-06T12:24:06;12.73;;;7.82;;
35126;SDS011;21300;52.006;5.798;2023-04-06T12:26:33;10.40;;;6.20;;
35126;SDS011;21300;52.006;5.798;2023-04-06T12:28:59;14.43;;;8.55;;
35126;SDS011;21300;52.006;5.798;2023-04-06T12:31:32;12.57;;;8.10;;
35126;SDS011;21300;52.006;5.798;2023-04-06T12:33:59;12.68;;;7.82;;
35126;SDS011;21300;52.006;5.798;2023-04-06T12:36:27;11.20;;;7.80;;
35126;SDS011;21300;52.006;5.798;2023-04-06T12:38:52;14.65;;;7.82;;
35126;SDS011;21300;52.006;5.798;2023-04-06T12:41:18;12.75;;;8.38;;
35126;SDS011;21300;52.006;5.798;2023-04-06T12:43:44;9.23;;;6.18;;
35126;SDS011;21300;52.006;5.798;2023-04-06T12:46:10;11.52;;;6.72;;
35126;SDS011;21300;52.006;5.798;2023-04-06T12:48:36;10.95;;;7.47;;
35126;SDS011;21300;52.006;5.798;2023-04-06T12:51:03;10.02;;;6.00;;
35126;SDS011;21300;52.006;5.798;2023-04-06T12:53:30;8.77;;;5.78;;
35126;SDS011;21300;52.006;5.798;2023-04-06T12:55:56;8.23;;;5.72;;
35126;SDS011;21300;52.006;5.798;2023-04-06T12:58:23;10.63;;;6.72;;
35126;SDS011;21300;52.006;5.798;2023-04-06T13:00:51;11.93;;;7.10;;
35126;SDS011;21300;52.006;5.798;2023-04-06T13:03:18;9.35;;;6.55;;
35126;SDS011;21300;52.006;5.798;2023-04-06T13:05:45;11.35;;;4.82;;
35126;SDS011;21300;52.006;5.798;2023-04-06T13:08:11;7.53;;;5.15;;
35126;SDS011;21300;52.006;5.798;2023-04-06T13:10:37;12.75;;;6.22;;
35126;SDS011;21300;52.006;5.798;2023-04-06T13:13:03;12.57;;;7.00;;
35126;SDS011;21300;52.006;5.798;2023-04-06T13:15:29;9.60;;;6.35;;
35126;SDS011;21300;52.006;5.798;2023-04-06T13:17:57;9.07;;;6.32;;
35126;SDS011;21300;52.006;5.798;2023-04-06T13:20:22;10.13;;;7.10;;
35126;SDS011;21300;52.006;5.798;2023-04-06T13:22:49;10.95;;;6.78;;
35126;SDS011;21300;52.006;5.798;2023-04-06T13:25:15;12.18;;;7.03;;
35126;SDS011;21300;52.006;5.798;2023-04-06T13:27:40;12.05;;;7.38;;
35126;SDS011;21300;52.006;5.798;2023-04-06T13:30:24;10.25;;;6.35;;
35126;SDS011;21300;52.006;5.798;2023-04-06T13:32:50;10.52;;;6.68;;
35126;SDS011;21300;52.006;5.798;2023-04-06T13:35:16;10.35;;;6.15;;
35126;SDS011;21300;52.006;5.798;2023-04-06T13:37:43;9.50;;;6.78;;
35126;SDS011;21300;52.006;5.798;2023-04-06T13:40:09;5.32;;;3.78;;
35126;SDS011;21300;52.006;5.798;2023-04-06T13:42:35;8.40;;;4.82;;
35126;SDS011;21300;52.006;5.798;2023-04-06T13:45:03;11.75;;;7.00;;
35126;SDS011;21300;52.006;5.798;2023-04-06T13:47:29;10.52;;;6.45;;
35126;SDS011;21300;52.006;5.798;2023-04-06T13:49:55;12.07;;;7.20;;
35126;SDS011;21300;52.006;5.798;2023-04-06T13:52:21;11.85;;;6.70;;
35126;SDS011;21300;52.006;5.798;2023-04-06T13:54:47;13.20;;;7.90;;
35126;SDS011;21300;52.006;5.798;2023-04-06T13:57:14;12.35;;;8.07;;
35126;SDS011;21300;52.006;5.798;2023-04-06T13:59:40;12.93;;;7.95;;
35126;SDS011;21300;52.006;5.798;2023-04-06T14:02:06;13.43;;;8.32;;
35126;SDS011;21300;52.006;5.798;2023-04-06T14:04:33;13.65;;;7.72;;
35126;SDS011;21300;52.006;5.798;2023-04-06T14:06:59;13.07;;;8.18;;
35126;SDS011;21300;52.006;5.798;2023-04-06T14:09:26;18.15;;;9.45;;
35126;SDS011;21300;52.006;5.798;2023-04-06T14:11:52;11.88;;;7.70;;
35126;SDS011;21300;52.006;5.798;2023-04-06T14:14:18;13.43;;;8.52;;
35126;SDS011;21300;52.006;5.798;2023-04-06T14:16:44;11.15;;;6.78;;
35126;SDS011;21300;52.006;5.798;2023-04-06T14:19:13;13.38;;;7.95;;
35126;SDS011;21300;52.006;5.798;2023-04-06T14:21:41;14.98;;;8.85;;
35126;SDS011;21300;52.006;5.798;2023-04-06T14:24:08;17.42;;;9.80;;
35126;SDS011;21300;52.006;5.798;2023-04-06T14:26:37;12.55;;;7.05;;
35126;SDS011;21300;52.006;5.798;2023-04-06T14:29:03;16.92;;;9.75;;
35126;SDS011;21300;52.006;5.798;2023-04-06T14:31:29;16.08;;;9.57;;
35126;SDS011;21300;52.006;5.798;2023-04-06T14:33:55;17.05;;;10.27;;
35126;SDS011;21300;52.006;5.798;2023-04-06T14:36:21;16.15;;;10.77;;
35126;SDS011;21300;52.006;5.798;2023-04-06T14:38:48;15.93;;;9.38;;
35126;SDS011;21300;52.006;5.798;2023-04-06T14:41:16;14.07;;;9.32;;